createdAt,value
2019-03-12T00:00:51.232Z,16.86
2019-03-12T00:01:52.617Z,16.86
2019-03-12T00:02:54.108Z,16.86
2019-03-12T00:03:55.493Z,16.86
2019-03-12T00:04:56.992Z,16.85
2019-03-12T00:05:58.396Z,16.85
2019-03-12T00:06:59.953Z,16.85
2019-03-12T00:08:01.339Z,16.84
2019-03-12T00:09:04.628Z,16.85
2019-03-12T00:10:07.917Z,16.83
2019-03-12T00:11:09.303Z,16.84
2019-03-12T00:12:10.687Z,16.83
2019-03-12T00:13:12.205Z,16.82
2019-03-12T00:14:13.684Z,16.82
2019-03-12T00:15:15.076Z,16.81
2019-03-12T00:16:16.700Z,16.81
2019-03-12T00:17:18.108Z,16.81
2019-03-12T00:18:19.526Z,16.82
2019-03-12T00:19:20.964Z,16.81
2019-03-12T00:20:22.378Z,16.82
2019-03-12T00:21:23.775Z,16.82
2019-03-12T00:22:25.149Z,16.83
2019-03-12T00:23:26.658Z,16.83
2019-03-12T00:24:28.043Z,16.81
2019-03-12T00:25:29.500Z,16.83
2019-03-12T00:26:32.033Z,16.83
2019-03-12T00:27:33.512Z,16.83
2019-03-12T00:28:34.947Z,16.82
2019-03-12T00:29:36.299Z,16.83
2019-03-12T00:30:37.760Z,16.83
2019-03-12T00:31:39.147Z,16.82
2019-03-12T00:32:40.589Z,16.82
2019-03-12T00:33:42.002Z,16.82
2019-03-12T00:34:43.417Z,16.82
2019-03-12T00:35:44.824Z,16.83
2019-03-12T00:36:46.575Z,16.82
2019-03-12T00:37:47.941Z,16.82
2019-03-12T00:38:49.347Z,16.82
2019-03-12T00:39:50.825Z,16.82
2019-03-12T00:40:52.217Z,16.82
2019-03-12T00:41:53.613Z,16.81
2019-03-12T00:42:55.036Z,16.80
2019-03-12T00:43:56.442Z,16.81
2019-03-12T00:44:57.862Z,16.82
2019-03-12T00:45:59.273Z,16.82
2019-03-12T00:47:00.682Z,16.82
2019-03-12T00:48:02.062Z,16.83
2019-03-12T00:49:03.454Z,16.82
2019-03-12T00:50:07.053Z,16.83
2019-03-12T00:51:08.449Z,16.83
2019-03-12T00:52:09.980Z,16.83
2019-03-12T00:53:11.491Z,16.83
2019-03-12T00:54:12.904Z,16.82
2019-03-12T00:55:14.307Z,16.82
2019-03-12T00:56:15.720Z,16.81
2019-03-12T00:57:17.253Z,16.80
2019-03-12T00:58:18.623Z,16.80
2019-03-12T00:59:20.126Z,16.81
2019-03-12T01:00:21.497Z,16.81
2019-03-12T01:01:23.016Z,16.80
2019-03-12T01:02:24.605Z,16.81
2019-03-12T01:03:26.016Z,16.81
2019-03-12T01:04:27.431Z,16.80
2019-03-12T01:05:28.840Z,16.82
2019-03-12T01:06:30.363Z,16.81
2019-03-12T01:07:32.232Z,16.80
2019-03-12T01:08:33.616Z,16.81
2019-03-12T01:09:36.058Z,16.80
2019-03-12T01:10:37.448Z,16.81
2019-03-12T01:11:38.949Z,16.81
2019-03-12T01:12:40.564Z,16.81
2019-03-12T01:13:41.973Z,16.80
2019-03-12T01:14:43.389Z,16.80
2019-03-12T01:15:45.092Z,16.76
2019-03-12T01:16:46.511Z,16.79
2019-03-12T01:17:48.027Z,16.79
2019-03-12T01:18:49.414Z,16.80
2019-03-12T01:19:50.834Z,16.78
2019-03-12T01:20:52.222Z,16.79
2019-03-12T01:21:53.623Z,16.79
2019-03-12T01:22:55.010Z,16.78
2019-03-12T01:23:56.419Z,16.79
2019-03-12T01:24:57.845Z,16.79
2019-03-12T01:25:59.257Z,16.78
2019-03-12T01:27:00.665Z,16.78
2019-03-12T01:28:02.064Z,16.78
2019-03-12T01:29:03.544Z,16.78
2019-03-12T01:30:11.570Z,16.78
2019-03-12T01:31:12.945Z,16.78
2019-03-12T01:32:14.413Z,16.79
2019-03-12T01:33:15.815Z,16.78
2019-03-12T01:34:17.314Z,16.77
2019-03-12T01:35:18.836Z,16.77
2019-03-12T01:36:20.240Z,16.77
2019-03-12T01:37:21.760Z,16.77
2019-03-12T01:38:23.328Z,16.78
2019-03-12T01:39:24.712Z,16.78
2019-03-12T01:40:26.115Z,16.78
2019-03-12T01:41:28.492Z,16.78
2019-03-12T01:42:30.021Z,16.77
2019-03-12T01:43:31.389Z,16.78
2019-03-12T01:44:32.801Z,16.79
2019-03-12T01:45:34.208Z,16.77
2019-03-12T01:46:36.624Z,16.78
2019-03-12T01:47:38.031Z,16.78
2019-03-12T01:48:39.569Z,16.77
2019-03-12T01:49:40.939Z,16.77
2019-03-12T01:50:42.458Z,16.76
2019-03-12T01:51:43.938Z,16.77
2019-03-12T01:52:45.334Z,16.76
2019-03-12T01:53:46.825Z,16.75
2019-03-12T01:54:48.239Z,16.75
2019-03-12T01:55:49.756Z,16.75
2019-03-12T01:56:51.168Z,16.74
2019-03-12T01:57:52.572Z,16.73
2019-03-12T01:58:54.106Z,16.74
2019-03-12T01:59:56.488Z,16.74
2019-03-12T02:00:57.889Z,16.73
2019-03-12T02:01:59.271Z,16.73
2019-03-12T02:03:00.720Z,16.73
2019-03-12T02:04:02.112Z,16.73
2019-03-12T02:05:04.217Z,16.73
2019-03-12T02:06:06.734Z,16.73
2019-03-12T02:07:08.247Z,16.73
2019-03-12T02:08:09.689Z,16.73
2019-03-12T02:09:12.289Z,16.72
2019-03-12T02:10:13.766Z,16.71
2019-03-12T02:11:15.161Z,16.72
2019-03-12T02:12:19.996Z,16.71
2019-03-12T02:13:21.445Z,16.72
2019-03-12T02:14:24.658Z,16.71
2019-03-12T02:15:26.068Z,16.71
2019-03-12T02:16:27.480Z,16.72
2019-03-12T02:17:28.893Z,16.71
2019-03-12T02:18:30.308Z,16.70
2019-03-12T02:19:31.723Z,16.70
2019-03-12T02:20:33.101Z,16.71
2019-03-12T02:21:34.708Z,16.70
2019-03-12T02:22:36.096Z,16.71
2019-03-12T02:23:37.483Z,16.71
2019-03-12T02:24:51.752Z,16.73
2019-03-12T02:25:42.191Z,16.72
2019-03-12T02:26:43.595Z,16.72
2019-03-12T02:27:44.970Z,16.72
2019-03-12T02:28:46.378Z,16.73
2019-03-12T02:29:47.959Z,16.72
2019-03-12T02:30:49.375Z,16.73
2019-03-12T02:31:50.776Z,16.74
2019-03-12T02:32:52.173Z,16.72
2019-03-12T02:33:53.629Z,16.72
2019-03-12T02:34:55.013Z,16.73
2019-03-12T02:35:56.427Z,16.73
2019-03-12T02:36:57.814Z,16.72
2019-03-12T02:37:59.199Z,16.71
2019-03-12T02:39:00.579Z,16.69
2019-03-12T02:40:02.582Z,16.70
2019-03-12T02:41:05.650Z,16.70
2019-03-12T02:42:07.058Z,16.70
2019-03-12T02:43:10.632Z,16.69
2019-03-12T02:44:12.046Z,16.69
2019-03-12T02:45:14.667Z,16.68
2019-03-12T02:46:16.053Z,16.67
2019-03-12T02:47:17.438Z,16.67
2019-03-12T02:48:18.825Z,16.67
2019-03-12T02:49:20.225Z,16.66
2019-03-12T02:50:21.740Z,16.66
2019-03-12T02:51:23.106Z,16.66
2019-03-12T02:52:24.615Z,16.65
2019-03-12T02:53:26.003Z,16.65
2019-03-12T02:54:27.610Z,16.65
2019-03-12T02:55:29.217Z,16.62
2019-03-12T02:56:30.598Z,16.66
2019-03-12T02:57:31.993Z,16.66
2019-03-12T02:58:33.388Z,16.65
2019-03-12T02:59:34.784Z,16.62
2019-03-12T03:00:36.284Z,16.65
2019-03-12T03:01:37.649Z,16.64
2019-03-12T03:02:39.051Z,16.64
2019-03-12T03:03:40.428Z,16.64
2019-03-12T03:04:41.827Z,16.64
2019-03-12T03:05:50.718Z,16.64
2019-03-12T03:06:54.012Z,16.63
2019-03-12T03:08:03.686Z,16.64
2019-03-12T03:09:05.403Z,16.63
2019-03-12T03:10:08.916Z,16.64
2019-03-12T03:11:10.418Z,16.63
2019-03-12T03:12:11.796Z,16.63
2019-03-12T03:13:13.401Z,16.62
2019-03-12T03:14:33.291Z,16.61
2019-03-12T03:15:39.202Z,16.61
2019-03-12T03:16:40.649Z,16.63
2019-03-12T03:17:42.067Z,16.63
2019-03-12T03:18:43.472Z,16.60
2019-03-12T03:19:44.893Z,16.61
2019-03-12T03:20:46.442Z,16.60
2019-03-12T03:21:48.044Z,16.61
2019-03-12T03:22:49.430Z,16.60
2019-03-12T03:23:50.810Z,16.61
2019-03-12T03:24:52.262Z,16.62
2019-03-12T03:25:53.663Z,16.62
2019-03-12T03:26:55.079Z,16.63
2019-03-12T03:27:56.483Z,16.62
2019-03-12T03:28:57.861Z,16.63
2019-03-12T03:29:59.261Z,16.63
2019-03-12T03:31:00.841Z,16.63
2019-03-12T03:32:02.430Z,16.64
2019-03-12T03:33:04.858Z,16.63
2019-03-12T03:34:06.337Z,16.64
2019-03-12T03:35:07.749Z,16.64
2019-03-12T03:36:09.151Z,16.65
2019-03-12T03:37:10.662Z,16.64
2019-03-12T03:38:11.990Z,16.65
2019-03-12T03:39:13.366Z,16.65
2019-03-12T03:40:17.398Z,16.64
2019-03-12T03:41:18.744Z,16.65
2019-03-12T03:42:20.273Z,16.65
2019-03-12T03:43:21.892Z,16.65
2019-03-12T03:44:23.387Z,16.65
2019-03-12T03:45:24.790Z,16.64
2019-03-12T03:46:26.210Z,16.64
2019-03-12T03:47:27.612Z,16.64
2019-03-12T03:48:29.125Z,16.64
2019-03-12T03:49:30.614Z,16.65
2019-03-12T03:50:32.109Z,16.64
2019-03-12T03:51:33.465Z,16.64
2019-03-12T03:52:34.862Z,16.64
2019-03-12T03:53:36.250Z,16.64
2019-03-12T03:54:37.748Z,16.64
2019-03-12T03:55:39.204Z,16.65
2019-03-12T03:56:40.588Z,16.64
2019-03-12T03:57:42.004Z,16.65
2019-03-12T03:58:43.421Z,16.64
2019-03-12T03:59:44.914Z,16.63
2019-03-12T04:00:46.568Z,16.64
2019-03-12T04:01:47.948Z,16.63
2019-03-12T04:02:53.168Z,16.64
2019-03-12T04:03:54.647Z,16.63
2019-03-12T04:04:56.014Z,16.64
2019-03-12T04:05:57.414Z,16.63
2019-03-12T04:06:58.788Z,16.63
2019-03-12T04:08:01.186Z,16.64
2019-03-12T04:09:04.720Z,16.63
2019-03-12T04:10:10.256Z,16.62
2019-03-12T04:11:11.657Z,16.62
2019-03-12T04:12:13.046Z,16.61
2019-03-12T04:13:14.434Z,16.60
2019-03-12T04:14:15.873Z,16.60
2019-03-12T04:15:17.839Z,16.58
2019-03-12T04:16:19.240Z,16.58
2019-03-12T04:17:21.608Z,16.59
2019-03-12T04:18:23.131Z,16.58
2019-03-12T04:19:24.676Z,16.58
2019-03-12T04:20:26.081Z,16.57
2019-03-12T04:21:27.567Z,16.58
2019-03-12T04:22:28.959Z,16.57
2019-03-12T04:23:30.452Z,16.57
2019-03-12T04:24:32.006Z,16.57
2019-03-12T04:25:33.382Z,16.57
2019-03-12T04:26:34.905Z,16.55
2019-03-12T04:27:36.484Z,16.56
2019-03-12T04:28:37.895Z,16.57
2019-03-12T04:29:40.315Z,16.56
2019-03-12T04:30:41.708Z,16.57
2019-03-12T04:31:43.101Z,16.56
2019-03-12T04:32:44.581Z,16.54
2019-03-12T04:33:58.389Z,16.55
2019-03-12T04:34:59.916Z,16.54
2019-03-12T04:36:01.337Z,16.57
2019-03-12T04:37:02.848Z,16.55
2019-03-12T04:38:04.258Z,16.53
2019-03-12T04:39:05.967Z,16.53
2019-03-12T04:40:11.330Z,16.52
2019-03-12T04:41:12.809Z,16.52
2019-03-12T04:42:14.219Z,16.52
2019-03-12T04:43:15.589Z,16.52
2019-03-12T04:44:16.988Z,16.52
2019-03-12T04:45:18.401Z,16.51
2019-03-12T04:46:19.785Z,16.51
2019-03-12T04:47:21.200Z,16.51
2019-03-12T04:48:22.618Z,16.52
2019-03-12T04:49:24.033Z,16.51
2019-03-12T04:50:25.460Z,16.50
2019-03-12T04:51:26.835Z,16.52
2019-03-12T04:52:28.244Z,16.53
2019-03-12T04:53:29.727Z,16.52
2019-03-12T04:54:31.128Z,16.52
2019-03-12T04:55:32.548Z,16.52
2019-03-12T04:56:33.941Z,16.53
2019-03-12T04:57:35.413Z,16.53
2019-03-12T04:58:36.806Z,16.53
2019-03-12T04:59:38.499Z,16.54
2019-03-12T05:00:39.881Z,16.53
2019-03-12T05:01:41.372Z,16.55
2019-03-12T05:02:42.873Z,16.53
2019-03-12T05:03:44.283Z,16.54
2019-03-12T05:04:45.704Z,16.53
2019-03-12T05:05:47.107Z,16.52
2019-03-12T05:06:48.481Z,16.52
2019-03-12T05:07:50.885Z,16.50
2019-03-12T05:08:52.405Z,16.51
2019-03-12T05:09:53.804Z,16.52
2019-03-12T05:10:55.317Z,16.51
2019-03-12T05:11:56.730Z,16.51
2019-03-12T05:12:58.146Z,16.51
2019-03-12T05:14:22.606Z,16.52
2019-03-12T05:15:24.117Z,16.52
2019-03-12T05:16:25.850Z,16.56
2019-03-12T05:17:27.317Z,16.54
2019-03-12T05:18:28.694Z,16.51
2019-03-12T05:19:30.076Z,16.51
2019-03-12T05:20:31.584Z,16.50
2019-03-12T05:21:33.143Z,16.49
2019-03-12T05:22:34.683Z,16.49
2019-03-12T05:23:36.236Z,16.47
2019-03-12T05:24:37.744Z,16.48
2019-03-12T05:25:39.162Z,16.48
2019-03-12T05:26:40.688Z,16.47
2019-03-12T05:27:42.511Z,16.46
2019-03-12T05:28:44.015Z,16.47
2019-03-12T05:29:45.419Z,16.46
2019-03-12T05:30:46.828Z,16.46
2019-03-12T05:31:48.448Z,16.47
2019-03-12T05:32:50.827Z,16.46
2019-03-12T05:33:52.233Z,16.45
2019-03-12T05:34:53.750Z,16.42
2019-03-12T05:35:55.161Z,16.46
2019-03-12T05:36:56.538Z,16.45
2019-03-12T05:37:57.949Z,16.44
2019-03-12T05:38:59.358Z,16.44
2019-03-12T05:40:00.769Z,16.45
2019-03-12T05:41:02.212Z,16.44
2019-03-12T05:42:03.641Z,16.45
2019-03-12T05:43:05.012Z,16.45
2019-03-12T05:44:06.411Z,16.45
2019-03-12T05:45:12.958Z,16.45
2019-03-12T05:46:14.448Z,16.45
2019-03-12T05:47:15.835Z,16.46
2019-03-12T05:48:17.237Z,16.44
2019-03-12T05:49:18.646Z,16.44
2019-03-12T05:50:20.352Z,16.43
2019-03-12T05:51:22.008Z,16.42
2019-03-12T05:52:23.528Z,16.41
2019-03-12T05:53:28.500Z,16.40
2019-03-12T05:54:29.896Z,16.36
2019-03-12T05:55:31.380Z,16.36
2019-03-12T05:56:32.868Z,16.33
2019-03-12T05:57:34.330Z,16.31
2019-03-12T05:58:35.708Z,16.28
2019-03-12T05:59:37.085Z,16.27
2019-03-12T06:00:38.473Z,16.25
2019-03-12T06:01:39.858Z,16.22
2019-03-12T06:02:41.344Z,16.20
2019-03-12T06:03:42.759Z,16.17
2019-03-12T06:04:44.209Z,16.13
2019-03-12T06:05:45.621Z,16.11
2019-03-12T06:06:47.418Z,16.07
2019-03-12T06:07:48.816Z,16.06
2019-03-12T06:08:50.191Z,16.03
2019-03-12T06:09:51.595Z,15.97
2019-03-12T06:10:52.997Z,15.99
2019-03-12T06:11:54.391Z,15.98
2019-03-12T06:12:55.768Z,15.98
2019-03-12T06:13:57.185Z,15.97
2019-03-12T06:14:58.602Z,15.98
2019-03-12T06:16:00.013Z,15.99
2019-03-12T06:17:01.422Z,16.00
2019-03-12T06:18:02.837Z,16.01
2019-03-12T06:19:04.200Z,16.03
2019-03-12T06:20:10.976Z,16.06
2019-03-12T06:21:12.353Z,16.10
2019-03-12T06:22:14.093Z,16.16
2019-03-12T06:23:16.476Z,16.19
2019-03-12T06:24:17.882Z,16.26
2019-03-12T06:25:19.413Z,16.31
2019-03-12T06:26:20.814Z,16.38
2019-03-12T06:27:22.233Z,16.43
2019-03-12T06:28:23.821Z,16.48
2019-03-12T06:29:25.291Z,16.53
2019-03-12T06:30:28.599Z,16.59
2019-03-12T06:31:34.623Z,16.66
2019-03-12T06:32:37.925Z,16.73
2019-03-12T06:33:57.122Z,16.80
2019-03-12T06:35:00.432Z,16.86
2019-03-12T06:36:06.541Z,16.96
2019-03-12T06:37:12.633Z,17.02
2019-03-12T06:38:33.805Z,17.07
2019-03-12T06:39:42.964Z,17.12
2019-03-12T06:40:51.820Z,17.21
2019-03-12T06:41:55.124Z,17.25
2019-03-12T06:43:04.935Z,17.29
2019-03-12T06:44:11.092Z,17.33
2019-03-12T06:45:26.485Z,17.38
2019-03-12T06:46:35.682Z,17.43
2019-03-12T06:47:48.052Z,17.51
2019-03-12T06:48:51.472Z,17.56
2019-03-12T06:50:09.965Z,17.59
2019-03-12T06:51:13.370Z,17.61
2019-03-12T06:52:19.667Z,17.68
2019-03-12T06:53:25.836Z,17.68
2019-03-12T06:54:35.056Z,17.72
2019-03-12T06:55:50.420Z,17.74
2019-03-12T06:57:08.861Z,17.81
2019-03-12T06:58:28.797Z,17.85
2019-03-12T06:59:32.172Z,17.89
2019-03-12T07:00:35.478Z,17.92
2019-03-12T07:01:44.823Z,17.92
2019-03-12T07:03:00.170Z,17.93
2019-03-12T07:04:20.437Z,17.93
2019-03-12T07:05:32.861Z,17.97
2019-03-12T07:06:38.678Z,18.00
2019-03-12T07:07:51.077Z,17.99
2019-03-12T07:09:00.166Z,17.99
2019-03-12T07:10:19.982Z,18.00
2019-03-12T07:11:35.338Z,18.01
2019-03-12T07:12:55.220Z,18.04
2019-03-12T07:14:04.476Z,18.05
2019-03-12T07:15:09.854Z,18.07
2019-03-12T07:16:19.003Z,18.06
2019-03-12T07:17:39.311Z,18.07
2019-03-12T07:18:42.609Z,18.09
2019-03-12T07:20:02.709Z,18.10
2019-03-12T07:21:06.019Z,18.10
2019-03-12T07:22:25.718Z,18.13
2019-03-12T07:23:44.341Z,18.13
2019-03-12T07:24:47.672Z,18.16
2019-03-12T07:26:00.049Z,18.17
2019-03-12T07:27:09.359Z,18.15
2019-03-12T07:28:18.753Z,18.17
2019-03-12T07:29:38.707Z,18.17
2019-03-12T07:30:42.081Z,18.16
2019-03-12T07:31:45.358Z,18.18
2019-03-12T07:33:03.248Z,18.16
2019-03-12T07:34:18.159Z,18.15
2019-03-12T07:35:22.704Z,18.19
2019-03-12T07:36:37.892Z,18.20
2019-03-12T07:37:53.092Z,18.20
2019-03-12T07:39:14.158Z,18.22
2019-03-12T07:40:20.424Z,18.24
2019-03-12T07:41:33.093Z,18.27
2019-03-12T07:42:45.356Z,18.25
2019-03-12T07:43:51.469Z,18.25
2019-03-12T07:44:57.876Z,18.25
2019-03-12T07:46:17.690Z,18.23
2019-03-12T07:47:35.324Z,18.22
2019-03-12T07:48:35.278Z,18.23
2019-03-12T07:49:38.565Z,18.20
2019-03-12T07:50:41.920Z,18.20
2019-03-12T07:53:12.357Z,18.22
2019-03-12T07:54:24.550Z,18.16
2019-03-12T07:55:45.132Z,18.19
2019-03-12T07:56:54.052Z,18.21
2019-03-12T07:58:06.141Z,18.21
2019-03-12T07:59:12.216Z,18.21
2019-03-12T08:00:21.285Z,18.21
2019-03-12T08:01:30.572Z,18.21
2019-03-12T08:02:50.046Z,18.22
2019-03-12T08:04:02.131Z,18.23
2019-03-12T08:05:06.916Z,18.23
2019-03-12T08:06:27.073Z,18.24
2019-03-12T08:07:36.287Z,18.24
2019-03-12T08:08:42.347Z,18.27
2019-03-12T08:09:51.615Z,18.26
2019-03-12T08:10:57.111Z,18.27
2019-03-12T08:12:06.136Z,18.26
2019-03-12T08:13:18.292Z,18.25
2019-03-12T08:14:26.903Z,18.27
2019-03-12T08:15:39.921Z,18.28
2019-03-12T08:16:46.328Z,18.29
2019-03-12T08:17:52.779Z,18.29
2019-03-12T08:19:04.839Z,18.28
2019-03-12T08:20:11.485Z,18.28
2019-03-12T08:21:36.113Z,18.28
2019-03-12T08:22:59.141Z,18.27
2019-03-12T08:24:21.737Z,18.27
2019-03-12T08:25:28.091Z,18.26
2019-03-12T08:26:34.514Z,18.27
2019-03-12T08:27:43.823Z,18.22
2019-03-12T08:29:02.163Z,18.23
2019-03-12T08:30:17.459Z,18.21
2019-03-12T08:31:29.963Z,18.23
2019-03-12T08:32:39.092Z,18.23
2019-03-12T08:33:50.679Z,18.22
2019-03-12T08:34:53.500Z,18.23
2019-03-12T08:35:59.864Z,18.22
2019-03-12T08:37:12.188Z,18.22
2019-03-12T08:38:21.327Z,18.22
2019-03-12T08:39:27.747Z,18.22
2019-03-12T08:40:34.196Z,18.22
2019-03-12T08:41:58.798Z,18.24
2019-03-12T08:43:05.267Z,18.22
2019-03-12T08:44:14.820Z,18.24
2019-03-12T08:45:21.352Z,18.22
2019-03-12T08:46:42.952Z,18.20
2019-03-12T08:47:49.328Z,18.22
2019-03-12T08:48:55.933Z,18.24
2019-03-12T08:50:08.096Z,18.21
2019-03-12T08:51:17.422Z,18.21
2019-03-12T08:52:23.855Z,18.22
2019-03-12T08:53:33.168Z,18.22
2019-03-12T08:54:55.796Z,18.20
2019-03-12T08:56:04.845Z,18.21
2019-03-12T08:57:11.213Z,18.23
2019-03-12T08:58:23.661Z,18.21
2019-03-12T08:59:30.112Z,18.19
2019-03-12T09:00:52.858Z,18.20
2019-03-12T09:02:02.299Z,18.19
2019-03-12T09:03:16.325Z,18.22
2019-03-12T09:04:31.588Z,18.21
2019-03-12T09:05:56.972Z,18.23
2019-03-12T09:07:06.154Z,18.24
2019-03-12T09:08:15.407Z,18.26
2019-03-12T09:09:33.601Z,18.25
2019-03-12T09:10:55.148Z,18.23
2019-03-12T09:12:19.743Z,18.24
2019-03-12T09:13:28.877Z,18.26
2019-03-12T09:14:47.137Z,18.27
2019-03-12T09:15:56.312Z,18.25
2019-03-12T09:17:08.427Z,18.26
2019-03-12T09:18:20.932Z,18.26
2019-03-12T09:19:30.113Z,18.27
2019-03-12T09:20:39.130Z,18.28
2019-03-12T09:21:45.493Z,18.28
2019-03-12T09:23:06.776Z,18.28
2019-03-12T09:24:15.919Z,18.28
2019-03-12T09:25:31.022Z,18.30
2019-03-12T09:26:53.646Z,18.30
2019-03-12T09:28:16.070Z,18.31
2019-03-12T09:29:28.440Z,18.33
2019-03-12T09:30:39.747Z,18.34
2019-03-12T09:32:00.907Z,18.32
2019-03-12T09:33:13.195Z,18.31
2019-03-12T09:34:23.571Z,18.32
2019-03-12T09:35:36.081Z,18.32
2019-03-12T09:36:45.387Z,18.31
2019-03-12T09:37:54.548Z,18.32
2019-03-12T09:39:06.927Z,18.31
2019-03-12T09:40:17.595Z,18.32
2019-03-12T09:41:29.655Z,18.33
2019-03-12T09:42:44.882Z,18.33
2019-03-12T09:43:54.053Z,18.34
2019-03-12T09:45:06.431Z,18.35
2019-03-12T09:46:18.612Z,18.35
2019-03-12T09:47:41.014Z,18.34
2019-03-12T09:49:03.900Z,18.35
2019-03-12T09:50:11.047Z,18.38
2019-03-12T09:51:23.199Z,18.39
2019-03-12T09:52:29.547Z,18.36
2019-03-12T09:53:35.916Z,18.36
2019-03-12T09:54:48.009Z,18.35
2019-03-12T09:56:13.360Z,18.35
2019-03-12T09:57:19.803Z,18.34
2019-03-12T09:58:34.968Z,18.36
2019-03-12T09:59:48.211Z,18.35
2019-03-12T10:01:06.460Z,18.35
2019-03-12T10:02:12.812Z,18.35
2019-03-12T10:03:19.264Z,18.37
2019-03-12T10:04:25.943Z,18.35
2019-03-12T10:05:35.048Z,18.35
2019-03-12T10:06:47.745Z,18.36
2019-03-12T10:08:06.193Z,18.35
2019-03-12T10:09:17.936Z,18.36
2019-03-12T10:10:33.917Z,18.37
2019-03-12T10:11:43.148Z,18.36
2019-03-12T10:12:55.318Z,18.37
2019-03-12T10:14:01.769Z,18.37
2019-03-12T10:15:24.579Z,18.37
2019-03-12T10:16:39.959Z,18.27
2019-03-12T10:17:46.319Z,18.33
2019-03-12T10:19:10.892Z,18.36
2019-03-12T10:20:30.003Z,18.38
2019-03-12T10:21:51.259Z,18.43
2019-03-12T10:22:57.696Z,18.47
2019-03-12T10:24:04.062Z,18.50
2019-03-12T10:25:10.605Z,18.48
2019-03-12T10:26:17.255Z,18.49
2019-03-12T10:27:29.371Z,18.49
2019-03-12T10:28:53.991Z,18.49
2019-03-12T10:30:03.395Z,18.51
2019-03-12T10:31:26.014Z,18.52
2019-03-12T10:32:44.456Z,18.51
2019-03-12T10:33:54.742Z,18.52
2019-03-12T10:35:09.997Z,18.51
2019-03-12T10:36:22.647Z,18.51
2019-03-12T10:37:38.491Z,18.51
2019-03-12T10:39:38.834Z,18.49
2019-03-12T10:40:48.268Z,18.50
2019-03-12T10:41:54.707Z,18.55
2019-03-12T10:43:03.048Z,18.49
2019-03-12T10:44:19.528Z,18.46
2019-03-12T10:45:25.962Z,18.45
2019-03-12T10:46:35.115Z,18.46
2019-03-12T10:47:41.645Z,18.45
2019-03-12T10:48:46.367Z,18.47
2019-03-12T10:49:51.167Z,18.47
2019-03-12T10:50:55.967Z,18.48
2019-03-12T10:52:00.888Z,18.49
2019-03-12T10:53:05.766Z,18.51
2019-03-12T10:54:10.498Z,18.51
2019-03-12T10:55:15.292Z,18.53
2019-03-12T10:56:20.019Z,18.52
2019-03-12T10:57:24.912Z,18.54
2019-03-12T10:58:29.727Z,18.54
2019-03-12T10:59:35.710Z,18.54
2019-03-12T11:00:40.877Z,18.54
2019-03-12T11:01:45.756Z,18.54
2019-03-12T11:02:50.733Z,18.55
2019-03-12T11:03:55.601Z,18.54
2019-03-12T11:05:00.473Z,18.55
2019-03-12T11:06:05.420Z,18.55
2019-03-12T11:07:16.480Z,18.56
2019-03-12T11:08:16.804Z,18.55
2019-03-12T11:09:21.672Z,18.56
2019-03-12T11:10:26.975Z,18.57
2019-03-12T11:11:31.768Z,18.56
2019-03-12T11:12:37.577Z,18.57
2019-03-12T11:13:42.376Z,18.56
2019-03-12T11:14:47.184Z,18.56
2019-03-12T11:15:52.068Z,18.57
2019-03-12T11:16:57.127Z,18.57
2019-03-12T11:18:01.911Z,18.56
2019-03-12T11:19:06.743Z,18.57
2019-03-12T11:20:22.938Z,18.57
2019-03-12T11:21:27.879Z,18.59
2019-03-12T11:22:32.889Z,18.61
2019-03-12T11:23:37.700Z,18.60
2019-03-12T11:24:42.590Z,18.58
2019-03-12T11:25:47.397Z,18.58
2019-03-12T11:26:52.263Z,18.58
2019-03-12T11:27:57.069Z,18.59
2019-03-12T11:29:02.800Z,18.59
2019-03-12T11:30:13.308Z,18.59
2019-03-12T11:31:18.119Z,18.60
2019-03-12T11:32:22.958Z,18.59
2019-03-12T11:33:27.678Z,18.58
2019-03-12T11:34:32.405Z,18.59
2019-03-12T11:35:39.703Z,18.60
2019-03-12T11:36:44.804Z,18.61
2019-03-12T11:37:49.528Z,18.62
2019-03-12T11:38:54.369Z,18.61
2019-03-12T11:40:01.242Z,18.63
2019-03-12T11:41:07.156Z,18.64
2019-03-12T11:42:11.849Z,18.65
2019-03-12T11:43:16.660Z,18.67
2019-03-12T11:44:21.378Z,18.68
2019-03-12T11:45:36.157Z,18.69
2019-03-12T11:46:41.948Z,18.70
2019-03-12T11:47:39.842Z,18.71
2019-03-12T11:48:44.813Z,18.72
2019-03-12T11:49:49.621Z,18.72
2019-03-12T11:50:54.513Z,18.73
2019-03-12T11:51:59.481Z,18.73
2019-03-12T11:53:04.425Z,18.74
2019-03-12T11:54:09.683Z,18.73
2019-03-12T11:55:15.900Z,18.74
2019-03-12T11:56:20.748Z,18.75
2019-03-12T11:57:25.624Z,18.75
2019-03-12T11:58:30.357Z,18.75
2019-03-12T11:59:35.125Z,18.76
2019-03-12T12:00:50.726Z,18.77
2019-03-12T12:01:55.445Z,18.77
2019-03-12T12:03:00.822Z,18.79
2019-03-12T12:04:15.139Z,18.77
2019-03-12T12:05:20.039Z,18.77
2019-03-12T12:06:24.840Z,18.78
2019-03-12T12:07:29.645Z,18.79
2019-03-12T12:08:34.530Z,18.79
2019-03-12T12:09:39.334Z,18.78
2019-03-12T12:10:44.179Z,18.79
2019-03-12T12:11:48.972Z,18.78
2019-03-12T12:12:53.780Z,18.79
2019-03-12T12:13:58.485Z,18.79
2019-03-12T12:15:04.119Z,18.80
2019-03-12T12:16:08.946Z,18.79
2019-03-12T12:17:13.789Z,18.79
2019-03-12T12:18:18.596Z,18.78
2019-03-12T12:19:23.392Z,18.79
2019-03-12T12:20:30.102Z,18.79
2019-03-12T12:21:35.866Z,18.78
2019-03-12T12:22:40.666Z,18.79
2019-03-12T12:23:45.482Z,18.79
2019-03-12T12:24:50.292Z,18.79
2019-03-12T12:25:55.102Z,18.80
2019-03-12T12:26:59.917Z,18.80
2019-03-12T12:28:04.728Z,18.80
2019-03-12T12:29:09.611Z,18.80
2019-03-12T12:30:18.051Z,18.81
2019-03-12T12:31:22.974Z,18.82
2019-03-12T12:32:28.058Z,18.82
2019-03-12T12:33:32.860Z,18.82
2019-03-12T12:34:37.662Z,18.83
2019-03-12T12:35:42.533Z,18.81
2019-03-12T12:36:47.336Z,18.82
2019-03-12T12:37:52.144Z,18.80
2019-03-12T12:38:57.053Z,18.81
2019-03-12T12:40:01.856Z,18.80
2019-03-12T12:41:07.443Z,18.80
2019-03-12T12:42:13.855Z,18.81
2019-03-12T12:43:18.787Z,18.80
2019-03-12T12:44:23.666Z,18.80
2019-03-12T12:45:30.607Z,18.80
2019-03-12T12:46:35.437Z,18.79
2019-03-12T12:47:40.228Z,18.79
2019-03-12T12:48:45.041Z,18.80
2019-03-12T12:49:49.861Z,18.80
2019-03-12T12:51:02.951Z,18.79
2019-03-12T12:52:01.191Z,18.79
2019-03-12T12:53:05.915Z,18.80
2019-03-12T12:54:10.724Z,18.80
2019-03-12T12:55:16.523Z,18.81
2019-03-12T12:56:21.328Z,18.80
2019-03-12T12:57:26.142Z,18.82
2019-03-12T12:58:30.944Z,18.80
2019-03-12T12:59:35.677Z,18.78
2019-03-12T13:00:40.574Z,18.81
2019-03-12T13:01:45.368Z,18.79
2019-03-12T13:02:50.468Z,18.82
2019-03-12T13:03:56.274Z,18.81
2019-03-12T13:05:01.079Z,18.83
2019-03-12T13:06:06.187Z,18.82
2019-03-12T13:07:13.988Z,18.83
2019-03-12T13:08:18.840Z,18.84
2019-03-12T13:09:23.735Z,18.84
2019-03-12T13:10:33.775Z,18.83
2019-03-12T13:11:38.579Z,18.82
2019-03-12T13:12:46.278Z,18.84
2019-03-12T13:13:49.885Z,18.83
2019-03-12T13:14:54.683Z,18.83
2019-03-12T13:15:59.485Z,18.83
2019-03-12T13:17:04.380Z,18.84
2019-03-12T13:18:09.192Z,18.85
2019-03-12T13:19:14.088Z,18.84
2019-03-12T13:20:19.185Z,18.83
2019-03-12T13:21:23.981Z,18.85
2019-03-12T13:22:28.841Z,18.86
2019-03-12T13:23:35.992Z,18.86
2019-03-12T13:24:40.132Z,18.86
2019-03-12T13:25:44.946Z,18.86
2019-03-12T13:26:49.741Z,18.87
2019-03-12T13:27:54.624Z,18.87
2019-03-12T13:28:59.595Z,18.86
2019-03-12T13:30:06.830Z,18.87
2019-03-12T13:31:11.699Z,18.86
2019-03-12T13:32:16.637Z,18.89
2019-03-12T13:33:21.562Z,18.87
2019-03-12T13:34:26.375Z,18.86
2019-03-12T13:35:31.243Z,18.86
2019-03-12T13:36:36.049Z,18.87
2019-03-12T13:37:40.847Z,18.87
2019-03-12T13:38:47.749Z,18.86
2019-03-12T13:39:52.170Z,18.86
2019-03-12T13:40:57.080Z,18.87
2019-03-12T13:42:01.837Z,18.88
2019-03-12T13:43:06.736Z,18.87
2019-03-12T13:44:11.624Z,18.87
2019-03-12T13:45:19.009Z,18.86
2019-03-12T13:46:23.854Z,18.87
2019-03-12T13:47:29.652Z,18.87
2019-03-12T13:48:34.848Z,18.88
2019-03-12T13:49:39.724Z,18.86
2019-03-12T13:50:44.578Z,18.86
2019-03-12T13:51:49.457Z,18.82
2019-03-12T13:52:54.426Z,18.86
2019-03-12T13:53:59.440Z,18.87
2019-03-12T13:55:06.225Z,18.87
2019-03-12T13:56:11.045Z,18.87
2019-03-12T13:57:15.850Z,18.88
2019-03-12T13:58:20.648Z,18.89
2019-03-12T13:59:27.539Z,18.89
2019-03-12T14:00:33.386Z,18.89
2019-03-12T14:01:38.739Z,18.90
2019-03-12T14:02:43.556Z,18.90
2019-03-12T14:03:48.383Z,18.89
2019-03-12T14:04:53.192Z,18.89